Time;durP1;ratioP1;P1;durP2;ratioP2;P2;SDS_P1;SDS_P2;PMS_P1;PMS_P2;Temp;Humidity;BMP_temperature;BMP_pressure;BME280_temperature;BME280_humidity;BME280_pressure;Samples;Min_cycle;Max_cycle;Signal;HPM_P1;HPM_P2
2022/12/22 03:28:18;;;;;;;25.95;19.02;;;;;;;8.48;100.00;100078.41;4829002;29;20052;-89
2022/12/22 03:30:43;;;;;;;23.10;20.00;;;;;;;8.51;100.00;100070.66;4821709;29;20132;-89
2022/12/22 03:33:09;;;;;;;21.70;18.80;;;;;;;8.52;100.00;100071.50;4811437;29;20085;-89
2022/12/22 03:35:34;;;;;;;23.30;18.97;;;;;;;8.46;100.00;100067.81;4839600;29;20064;-89
2022/12/22 03:38:02;;;;;;;20.77;18.50;;;;;;;8.50;100.00;100066.34;4811216;29;20041;-89
2022/12/22 03:40:30;;;;;;;20.03;17.93;;;;;;;8.51;100.00;100051.78;4813325;29;20044;-89
2022/12/22 03:48:24;;;;;;;21.60;17.90;;;;;;;8.41;100.00;100043.31;4840293;29;20104;-89
2022/12/22 03:50:50;;;;;;;18.00;16.03;;;;;;;8.43;100.00;100050.16;4828016;29;20069;-89
2022/12/22 03:53:15;;;;;;;23.60;17.07;;;;;;;8.39;100.00;100039.97;4823505;29;20042;-89
2022/12/22 03:55:40;;;;;;;19.97;17.80;;;;;;;8.45;100.00;100036.47;4811915;29;20041;-89
2022/12/22 03:58:06;;;;;;;24.73;16.70;;;;;;;8.40;100.00;100047.03;4827629;29;20050;-89
2022/12/22 04:00:31;;;;;;;19.37;17.07;;;;;;;8.44;100.00;100048.25;4812220;29;20083;-90
2022/12/22 04:02:58;;;;;;;21.03;18.73;;;;;;;8.47;100.00;100026.25;4822408;29;20038;-85
2022/12/22 04:05:23;;;;;;;20.40;17.80;;;;;;;8.42;100.00;100026.88;4822336;29;22131;-85
2022/12/22 04:07:49;;;;;;;20.47;18.27;;;;;;;8.41;100.00;100032.50;4821583;29;20046;-85
2022/12/22 04:12:58;;;;;;;21.73;18.63;;;;;;;8.41;100.00;100027.94;4839755;29;20414;-90
2022/12/22 04:15:27;;;;;;;23.47;17.50;;;;;;;8.33;100.00;100020.09;4797464;29;20326;-89
2022/12/22 04:17:53;;;;;;;22.63;18.37;;;;;;;8.37;100.00;100021.31;4838617;29;20113;-85
2022/12/22 04:20:20;;;;;;;21.90;19.50;;;;;;;8.38;100.00;100022.16;4820903;29;20525;-84
2022/12/22 04:22:46;;;;;;;22.50;20.03;;;;;;;8.39;100.00;100015.69;4819596;29;20073;-84
2022/12/22 04:25:12;;;;;;;24.77;21.20;;;;;;;8.40;100.00;100009.25;4837054;29;20057;-85
2022/12/22 04:27:38;;;;;;;24.83;21.40;;;;;;;8.38;100.00;100011.34;4837831;29;20037;-89
2022/12/22 04:30:05;;;;;;;25.93;20.97;;;;;;;8.38;100.00;100016.75;4823471;29;20021;-88
2022/12/22 04:32:30;;;;;;;28.20;22.27;;;;;;;8.37;100.00;100024.00;4823409;29;20121;-89
2022/12/22 04:34:56;;;;;;;30.80;23.60;;;;;;;8.36;100.00;100026.94;4814803;29;20053;-89
2022/12/22 04:37:21;;;;;;;31.93;23.43;;;;;;;8.34;100.00;100031.72;4824878;29;20070;-88
2022/12/22 04:39:47;;;;;;;26.40;21.77;;;;;;;8.35;100.00;100038.75;4842579;29;20038;-89
2022/12/22 04:42:12;;;;;;;40.27;23.70;;;;;;;8.30;100.00;100046.72;4842930;29;20046;-88
2022/12/22 04:44:37;;;;;;;27.47;21.83;;;;;;;8.35;100.00;100044.16;4815819;29;20551;-89
2022/12/22 04:47:03;;;;;;;43.47;24.23;;;;;;;8.25;100.00;100052.72;4826024;29;20105;-89
2022/12/22 04:49:28;;;;;;;112.80;24.07;;;;;;;8.24;100.00;100037.56;4809714;29;20049;-89
2022/12/22 04:51:53;;;;;;;27.60;21.53;;;;;;;8.30;100.00;100039.44;4822228;29;20045;-85
2022/12/22 04:54:19;;;;;;;45.07;29.20;;;;;;;8.35;100.00;100045.00;4823285;29;20172;-85
2022/12/22 04:56:44;;;;;;;43.73;29.67;;;;;;;8.37;100.00;100032.09;4841693;29;20668;-84
2022/12/22 04:59:09;;;;;;;39.47;27.03;;;;;;;8.37;100.00;100026.72;4841345;29;20053;-85
2022/12/22 05:01:36;;;;;;;36.17;25.67;;;;;;;8.35;100.00;100028.81;4822103;29;20163;-85
2022/12/22 05:04:01;;;;;;;29.50;22.70;;;;;;;8.38;100.00;100031.06;4830176;29;20033;-85
2022/12/22 05:06:26;;;;;;;29.90;21.70;;;;;;;8.41;100.00;100043.31;4829065;29;20380;-85
2022/12/22 05:08:52;;;;;;;33.57;24.30;;;;;;;8.34;100.00;100050.63;4841006;29;20045;-85
2022/12/22 05:11:17;;;;;;;52.27;27.90;;;;;;;8.29;100.00;100043.16;4824316;29;20050;-89
2022/12/22 05:13:43;;;;;;;37.03;27.20;;;;;;;8.27;100.00;100037.16;4825516;29;20058;-89
2022/12/22 05:16:12;;;;;;;50.77;26.93;;;;;;;8.20;100.00;100047.16;4826890;29;20754;-89
2022/12/22 05:18:39;;;;;;;36.40;25.13;;;;;;;8.26;100.00;100044.41;4830858;29;20042;-89
2022/12/22 05:21:13;;;;;;;49.50;26.63;;;;;;;8.21;100.00;100038.03;4842546;29;20489;-89
2022/12/22 05:23:38;;;;;;;;;;;;;;;8.30;100.00;100046.72;4843144;29;20462;-89
2022/12/22 05:26:04;;;;;;;60.13;24.40;;;;;;;8.19;100.00;100053.63;4813339;29;20022;-89
2022/12/22 05:28:31;;;;;;;40.03;24.03;;;;;;;8.18;100.00;100044.66;4823972;29;20042;-89
2022/12/22 05:30:57;;;;;;;276.40;37.03;;;;;;;8.06;100.00;100051.78;4841575;29;20041;-89
2022/12/22 05:33:22;;;;;;;130.47;29.67;;;;;;;8.04;100.00;100053.91;4843070;29;20061;-89
2022/12/22 05:35:48;;;;;;;229.30;32.97;;;;;;;8.08;100.00;100055.94;4824887;29;20101;-89
2022/12/22 05:38:13;;;;;;;121.03;27.97;;;;;;;8.09;100.00;100056.75;4842227;29;20406;-89
2022/12/22 05:40:38;;;;;;;120.23;29.17;;;;;;;8.09;100.00;100048.66;4842041;29;20038;-89
2022/12/22 05:43:04;;;;;;;76.83;25.53;;;;;;;8.12;100.00;100067.13;4824407;29;20541;-89
2022/12/22 05:45:30;;;;;;;58.53;25.07;;;;;;;8.11;100.00;100068.16;4842367;29;20562;-89
2022/12/22 05:47:55;;;;;;;47.77;23.03;;;;;;;8.14;100.00;100056.94;4825609;29;20073;-89
2022/12/22 05:50:23;;;;;;;111.43;26.43;;;;;;;8.12;100.00;100067.13;4844779;29;20041;-89
2022/12/22 05:52:49;;;;;;;186.27;32.23;;;;;;;8.12;100.00;100069.84;4841298;29;20116;-85
2022/12/22 05:55:15;;;;;;;64.77;24.23;;;;;;;8.13;100.00;100071.47;4824557;29;20044;-85
2022/12/22 05:57:42;;;;;;;209.77;31.20;;;;;;;8.14;100.00;100075.00;4805883;29;20120;-85
2022/12/22 06:00:11;;;;;;;76.50;25.10;;;;;;;8.17;100.00;100085.38;4827578;29;20089;-85
2022/12/22 06:02:36;;;;;;;80.60;28.17;;;;;;;8.10;100.00;100086.25;4841002;29;20097;-89
2022/12/22 06:05:02;;;;;;;42.47;23.97;;;;;;;8.18;100.00;100093.25;4829826;29;20033;-89
2022/12/22 06:07:28;;;;;;;40.33;23.83;;;;;;;8.21;100.00;100097.38;4840427;29;20034;-89
2022/12/22 06:09:53;;;;;;;38.50;23.67;;;;;;;8.30;100.00;100111.47;4814397;29;20069;-89
2022/12/22 06:12:19;;;;;;;39.33;23.83;;;;;;;8.31;100.00;100105.00;4825959;29;20033;-89
2022/12/22 06:14:44;;;;;;;37.23;24.27;;;;;;;8.34;100.00;100112.72;4827051;29;20041;-89
2022/12/22 06:17:09;;;;;;;36.03;22.83;;;;;;;8.34;100.00;100110.00;4834889;29;20076;-89
2022/12/22 06:19:35;;;;;;;36.13;23.13;;;;;;;8.35;100.00;100117.03;4821264;29;20130;-89
2022/12/22 06:22:00;;;;;;;37.27;23.70;;;;;;;8.35;100.00;100123.28;4829305;29;20081;-89
2022/12/22 06:24:26;;;;;;;37.03;23.97;;;;;;;8.38;100.00;100124.72;4808795;29;20038;-89
2022/12/22 06:26:51;;;;;;;36.87;23.27;;;;;;;8.36;100.00;100132.19;4840589;29;20041;-86
2022/12/22 06:29:17;;;;;;;38.67;25.37;;;;;;;8.37;100.00;100133.88;4825406;29;20022;-86
2022/12/22 06:31:42;;;;;;;43.67;26.47;;;;;;;8.32;100.00;100133.66;4837517;29;20125;-86
2022/12/22 06:34:09;;;;;;;41.60;26.43;;;;;;;8.33;100.00;100133.47;4854417;29;20170;-89
2022/12/22 06:36:34;;;;;;;42.47;26.63;;;;;;;8.33;100.00;100144.25;4832839;29;20528;-89
2022/12/22 06:39:00;;;;;;;44.13;27.93;;;;;;;8.34;100.00;100145.09;4840297;29;20033;-89
2022/12/22 06:44:09;;;;;;;43.93;28.50;;;;;;;8.35;100.00;100152.13;4840022;29;20045;-89
2022/12/22 06:46:34;;;;;;;45.00;28.27;;;;;;;8.34;100.00;100153.19;4849334;29;20033;-89
2022/12/22 06:49:00;;;;;;;49.80;30.37;;;;;;;8.32;100.00;100164.19;4850606;29;20102;-88
2022/12/22 06:51:25;;;;;;;51.93;31.53;;;;;;;8.32;100.00;100169.56;4839438;29;20072;-89
2022/12/22 06:53:50;;;;;;;57.50;33.47;;;;;;;8.30;100.00;100160.06;4837956;29;20045;-89
2022/12/22 06:56:16;;;;;;;52.30;31.63;;;;;;;8.30;100.00;100170.84;4835162;29;20044;-89
2022/12/22 06:58:41;;;;;;;57.03;32.20;;;;;;;8.28;100.00;100177.28;4856186;29;20042;-89
2022/12/22 07:01:06;;;;;;;57.60;32.60;;;;;;;8.26;100.00;100182.06;4851619;29;20038;-86
2022/12/22 07:03:32;;;;;;;55.20;32.07;;;;;;;8.26;100.00;100192.84;4824142;29;20033;-86
2022/12/22 07:05:57;;;;;;;61.10;34.27;;;;;;;8.26;100.00;100192.84;4836967;29;20120;-86
2022/12/22 07:08:23;;;;;;;62.43;35.43;;;;;;;8.23;100.00;100206.78;4837267;29;20104;-86
2022/12/22 07:10:57;;;;;;;64.63;35.27;;;;;;;8.21;100.00;100216.13;4852456;29;20032;-86
2022/12/22 07:13:33;;;;;;;69.90;36.25;;;;;;;8.22;100.00;100217.78;4820003;29;20124;-86
2022/12/22 07:16:01;;;;;;;72.50;36.47;;;;;;;8.22;100.00;100220.50;4849180;29;20089;-86
2022/12/22 07:18:28;;;;;;;72.43;38.00;;;;;;;8.21;100.00;100222.34;4832443;29;20030;-86
2022/12/22 07:20:53;;;;;;;72.37;36.57;;;;;;;8.19;100.00;100221.75;4839959;29;20037;-89
2022/12/22 07:23:19;;;;;;;69.93;36.87;;;;;;;8.16;100.00;100222.19;4841447;29;20036;-90
2022/12/22 07:25:44;;;;;;;74.00;38.50;;;;;;;8.20;100.00;100226.09;4808523;29;20112;-89
2022/12/22 07:28:10;;;;;;;74.87;38.03;;;;;;;8.13;100.00;100219.06;4823775;29;20540;-89
2022/12/22 07:30:35;;;;;;;66.70;36.40;;;;;;;8.13;100.00;100219.06;4842940;29;20120;-89
2022/12/22 07:33:02;;;;;;;67.93;37.37;;;;;;;8.10;100.00;100221.16;4822248;29;20179;-89
2022/12/22 07:35:28;;;;;;;69.60;37.50;;;;;;;8.09;100.00;100218.63;4839960;29;20033;-89
2022/12/22 07:37:53;;;;;;;69.00;36.73;;;;;;;8.06;100.00;100219.88;4840929;29;20060;-89
2022/12/22 07:40:19;;;;;;;70.73;36.57;;;;;;;7.96;100.00;100213.28;4821574;29;20149;-89
2022/12/22 07:42:45;;;;;;;63.37;35.47;;;;;;;7.95;100.00;100228.63;4813556;29;20051;-90
2022/12/22 07:45:15;;;;;;;67.07;36.73;;;;;;;7.95;100.00;100239.41;4838988;29;20059;-90
2022/12/22 07:47:41;;;;;;;72.10;37.93;;;;;;;7.99;100.00;100245.25;4839121;29;20117;-90
2022/12/22 07:50:31;;;;;;;71.40;37.93;;;;;;;8.01;100.00;100248.53;4812694;29;20037;-89
2022/12/22 07:53:02;;;;;;;75.10;39.40;;;;;;;8.02;100.00;100258.31;4839026;29;20037;-86
2022/12/22 07:55:34;;;;;;;76.77;39.83;;;;;;;8.01;100.00;100270.13;4822331;29;20304;-86
2022/12/22 07:57:59;;;;;;;65.17;36.27;;;;;;;7.93;100.00;100272.00;4842727;29;20040;-89
2022/12/22 08:00:25;;;;;;;72.27;38.23;;;;;;;7.93;100.00;100282.78;4840596;29;20717;-89
2022/12/22 08:02:52;;;;;;;67.10;36.63;;;;;;;7.91;100.00;100295.69;4812148;29;20648;-89
2022/12/22 08:05:19;;;;;;;71.80;38.40;;;;;;;7.88;100.00;100298.78;4841364;29;20029;-89
2022/12/22 08:07:44;;;;;;;67.33;36.97;;;;;;;7.87;100.00;100304.38;4839475;29;20037;-89
2022/12/22 08:10:10;;;;;;;69.80;37.87;;;;;;;7.89;100.00;100313.94;4824593;29;20029;-89
2022/12/22 08:12:36;;;;;;;72.90;36.63;;;;;;;7.86;100.00;100321.59;4840062;29;20374;-89
2022/12/22 08:15:02;;;;;;;65.77;35.00;;;;;;;7.88;100.00;100325.75;4823102;29;20022;-89
2022/12/22 08:17:31;;;;;;;60.67;34.47;;;;;;;7.85;100.00;100320.78;4839918;29;20148;-89
2022/12/22 08:19:56;;;;;;;59.13;34.97;;;;;;;7.86;100.00;100325.13;4821642;29;20033;-89
2022/12/22 08:22:22;;;;;;;55.80;33.93;;;;;;;7.84;100.00;100329.88;4823461;29;20224;-90
2022/12/22 08:24:51;;;;;;;55.00;32.00;;;;;;;7.87;100.00;100334.03;4826606;29;20481;-89
2022/12/22 08:27:20;;;;;;;51.60;31.97;;;;;;;7.86;100.00;100326.97;4824284;29;20116;-90
2022/12/22 08:29:48;;;;;;;48.23;29.93;;;;;;;7.84;100.00;100318.28;4840909;29;20029;-89
2022/12/22 08:32:14;;;;;;;44.50;28.87;;;;;;;7.84;100.00;100334.47;4827509;29;20041;-86
2022/12/22 08:34:40;;;;;;;42.90;27.50;;;;;;;7.83;100.00;100339.00;4821358;29;20057;-86
2022/12/22 08:37:12;;;;;;;42.40;26.80;;;;;;;7.81;100.00;100341.09;4826902;29;20065;-86
2022/12/22 08:39:39;;;;;;;41.80;25.70;;;;;;;7.79;100.00;100348.56;4838893;29;20069;-86
2022/12/22 08:42:07;;;;;;;37.50;24.73;;;;;;;7.77;100.00;100366.81;4831108;29;20022;-90
2022/12/22 08:44:35;;;;;;;39.57;24.63;;;;;;;7.79;100.00;100380.91;4833747;29;20033;-89
2022/12/22 08:47:00;;;;;;;40.63;26.47;;;;;;;7.78;100.00;100381.97;4834845;29;20054;-90
2022/12/22 08:49:26;;;;;;;40.33;26.50;;;;;;;7.81;100.00;100389.66;4827862;29;20037;-89
2022/12/22 08:51:52;;;;;;;42.33;26.17;;;;;;;7.81;100.00;100397.75;4822370;29;20037;-86
2022/12/22 08:54:18;;;;;;;42.53;26.60;;;;;;;7.80;100.00;100401.47;4841536;29;20037;-86
2022/12/22 08:56:44;;;;;;;42.57;26.77;;;;;;;7.78;100.00;100408.94;4822094;29;20045;-86
2022/12/22 08:59:10;;;;;;;40.00;25.60;;;;;;;7.76;100.00;100413.69;4826135;29;20029;-86
2022/12/22 09:01:38;;;;;;;42.90;26.97;;;;;;;7.74;100.00;100410.38;4839328;29;20403;-86
2022/12/22 09:04:05;;;;;;;43.47;27.20;;;;;;;7.73;100.00;100416.81;4840410;29;20038;-86
2022/12/22 09:06:31;;;;;;;44.17;27.97;;;;;;;7.69;100.00;100418.25;4823403;29;20045;-90
2022/12/22 09:09:02;;;;;;;45.23;28.80;;;;;;;7.60;100.00;100415.75;4840680;29;20140;-90
2022/12/22 09:11:28;;;;;;;44.23;27.73;;;;;;;7.62;100.00;100429.00;4821762;29;20487;-90
2022/12/22 09:13:56;;;;;;;42.87;27.83;;;;;;;7.59;100.00;100440.22;4823384;29;20034;-90
2022/12/22 09:16:23;;;;;;;43.17;27.80;;;;;;;7.53;100.00;100441.00;4840527;29;20120;-90
2022/12/22 09:18:48;;;;;;;47.50;29.80;;;;;;;7.51;100.00;100438.50;4824571;29;20037;-90
2022/12/22 09:21:15;;;;;;;45.67;28.90;;;;;;;7.48;100.00;100443.47;4824930;29;20045;-90
2022/12/22 09:23:41;;;;;;;45.17;27.57;;;;;;;7.43;100.00;100442.22;4839932;29;20036;-90
2022/12/22 09:26:12;;;;;;;47.93;29.77;;;;;;;7.48;100.00;100444.31;4830279;29;20033;-90
2022/12/22 09:28:38;;;;;;;45.93;29.40;;;;;;;7.54;100.00;100448.88;4823668;29;20093;-90
2022/12/22 09:31:04;;;;;;;44.00;28.60;;;;;;;7.72;100.00;100450.19;4815571;29;20039;-91
2022/12/22 09:33:29;;;;;;;41.20;27.13;;;;;;;7.84;100.00;100448.56;4831449;29;20105;-90
2022/12/22 09:35:55;;;;;;;43.80;27.70;;;;;;;7.98;100.00;100452.13;4830706;29;20780;-91
2022/12/22 09:38:21;;;;;;;41.67;27.43;;;;;;;8.23;100.00;100460.47;4842360;29;20653;-91
2022/12/22 09:40:46;;;;;;;37.60;25.60;;;;;;;8.39;100.00;100461.09;4843241;29;20085;-90
2022/12/22 09:43:15;;;;;;;36.40;25.07;;;;;;;8.44;100.00;100461.31;4820162;29;20041;-86
2022/12/22 09:45:41;;;;;;;36.67;24.53;;;;;;;8.74;100.00;100452.81;4823444;29;20065;-86
2022/12/22 09:48:11;;;;;;;35.23;23.77;;;;;;;8.84;100.00;100460.50;4827981;29;20487;-86
2022/12/22 09:50:38;;;;;;;34.77;23.60;;;;;;;9.07;100.00;100469.00;4827810;29;20029;-86
2022/12/22 09:53:07;;;;;;;33.03;22.73;;;;;;;9.14;100.00;100474.41;4813995;29;20069;-91
2022/12/22 09:55:43;;;;;;;32.37;23.00;;;;;;;9.00;100.00;100472.75;4825214;29;20041;-91
2022/12/22 09:58:34;;;;;;;33.33;23.10;;;;;;;8.91;100.00;100472.97;4825352;29;20041;-90
2022/12/22 10:01:21;;;;;;;33.77;24.43;;;;;;;8.95;100.00;100485.03;4843155;29;20104;-90
2022/12/22 10:03:53;;;;;;;33.50;24.07;;;;;;;8.96;100.00;100485.84;4830078;29;20041;-91
2022/12/22 10:06:38;;;;;;;32.43;22.67;;;;;;;9.09;100.00;100483.13;4831202;29;20162;-90
2022/12/22 10:09:36;;;;;;;35.33;23.63;;;;;;;9.37;100.00;100484.72;4843802;29;20053;-91
2022/12/22 10:12:05;;;;;;;33.63;24.13;;;;;;;9.12;100.00;100487.28;4797753;29;20045;-86
2022/12/22 10:14:40;;;;;;;33.73;24.27;;;;;;;9.07;100.00;100495.19;4839439;29;20108;-86
2022/12/22 10:17:32;;;;;;;34.63;23.00;;;;;;;9.23;100.00;100500.16;4827380;29;20421;-85
2022/12/22 10:20:13;;;;;;;34.10;23.60;;;;;;;9.18;100.00;100499.97;4812978;29;20041;-86
2022/12/22 10:22:51;;;;;;;35.50;23.63;;;;;;;9.04;100.00;100492.91;4822765;29;20265;-86
2022/12/22 10:25:55;;;;;;;32.13;23.17;;;;;;;9.19;100.00;100492.66;4822818;29;20045;-86
2022/12/22 10:28:43;;;;;;;34.20;24.80;;;;;;;8.91;100.00;100501.88;4820813;29;20125;-90
2022/12/22 10:31:14;;;;;;;33.33;24.43;;;;;;;8.75;100.00;100508.53;4828275;29;20471;-90
2022/12/22 10:33:42;;;;;;;34.93;25.93;;;;;;;8.50;100.00;100505.59;4843969;29;20046;-91
2022/12/22 10:36:08;;;;;;;32.80;24.57;;;;;;;8.47;100.00;100509.53;4828534;29;20038;-91
2022/12/22 10:38:38;;;;;;;35.00;25.87;;;;;;;8.37;100.00;100499.09;4854827;29;20136;-90
2022/12/22 10:41:13;;;;;;;35.77;25.10;;;;;;;8.36;100.00;100497.44;4830638;29;20025;-91
2022/12/22 10:43:48;;;;;;;31.73;22.63;;;;;;;8.28;100.00;100511.97;4828796;29;20533;-90
2022/12/22 10:46:13;;;;;;;30.45;21.70;;;;;;;8.28;100.00;100508.44;4829163;29;20041;-91
2022/12/22 10:48:39;;;;;;;25.80;19.43;;;;;;;8.51;100.00;100505.38;4829568;29;20168;-91
2022/12/22 10:51:07;;;;;;;27.30;18.03;;;;;;;8.97;100.00;100506.41;4816500;29;20122;-92
2022/12/22 10:53:53;;;;;;;25.53;17.80;;;;;;;9.02;100.00;100508.50;4831196;29;20042;-91
2022/12/22 10:56:27;;;;;;;25.57;17.33;;;;;;;9.01;100.00;100501.44;4842685;29;20038;-91
2022/12/22 10:58:54;;;;;;;21.55;15.13;;;;;;;9.20;100.00;100508.66;4830893;29;21020;-91
2022/12/22 11:01:36;;;;;;;22.07;14.63;;;;;;;9.48;100.00;100510.28;4846585;29;20382;-91
2022/12/22 11:04:26;;;;;;;21.67;14.87;;;;;;;9.75;100.00;100512.88;4830041;29;20037;-90
2022/12/22 11:06:53;;;;;;;20.90;13.93;;;;;;;9.44;100.00;100517.16;4828730;29;20066;-91
2022/12/22 11:09:19;;;;;;;21.83;14.43;;;;;;;9.37;100.00;100530.69;4832245;29;20068;-91
2022/12/22 11:11:58;;;;;;;22.33;15.67;;;;;;;9.29;100.00;100522.81;4839911;29;20186;-91
2022/12/22 11:14:51;;;;;;;22.20;14.67;;;;;;;9.59;100.00;100533.13;4841943;29;20040;-91
2022/12/22 11:17:25;;;;;;;23.03;14.77;;;;;;;9.71;100.00;100536.84;4828030;29;20030;-91
2022/12/22 11:20:13;;;;;;;23.37;15.03;;;;;;;9.75;100.00;100548.88;4846806;29;20033;-92
2022/12/22 11:22:51;;;;;;;21.67;13.30;;;;;;;9.70;100.00;100548.69;4816930;29;20045;-91
2022/12/22 11:25:32;;;;;;;21.27;13.97;;;;;;;9.58;100.00;100540.41;4827957;29;20698;-91
2022/12/22 11:28:14;;;;;;;20.23;13.00;;;;;;;9.55;100.00;100540.84;4829444;29;20124;-91
2022/12/22 11:31:17;;;;;;;22.50;13.53;;;;;;;9.46;100.00;100547.50;4832477;29;20582;-91
2022/12/22 11:34:02;;;;;;;22.93;14.03;;;;;;;9.48;100.00;100542.72;4801028;29;20047;-91
2022/12/22 11:36:30;;;;;;;20.63;13.50;;;;;;;9.37;100.00;100538.81;4838366;29;20502;-91
2022/12/22 11:39:46;;;;;;;22.80;13.27;;;;;;;9.32;100.00;100540.50;4857600;29;20128;-91
2022/12/22 11:42:28;;;;;;;21.07;12.70;;;;;;;9.20;100.00;100543.81;4809747;29;20054;-85
2022/12/22 11:45:24;;;;;;;19.07;12.17;;;;;;;9.04;100.00;100555.06;4839550;29;20739;-85
2022/12/22 11:48:14;;;;;;;24.17;14.67;;;;;;;8.93;100.00;100564.63;4831681;29;20105;-87
2022/12/22 11:50:48;;;;;;;22.17;14.60;;;;;;;8.77;100.00;100566.72;4820939;29;20214;-86
2022/12/22 11:53:42;;;;;;;23.87;16.50;;;;;;;8.69;100.00;100556.09;4850869;29;20175;-85
2022/12/22 11:56:18;;;;;;;26.23;17.77;;;;;;;8.66;100.00;100561.06;4853824;29;20045;-86
2022/12/22 11:58:59;;;;;;;30.60;21.73;;;;;;;8.56;100.00;100569.59;4846837;29;20029;-86
2022/12/22 12:01:43;;;;;;;30.70;24.30;;;;;;;8.58;100.00;100557.53;4847325;29;20037;-86
2022/12/22 12:04:25;;;;;;;30.97;25.97;;;;;;;8.49;100.00;100557.94;4851262;29;20029;-85
2022/12/22 12:07:15;;;;;;;34.40;27.43;;;;;;;8.53;100.00;100551.09;4836243;29;20394;-86
2022/12/22 12:10:04;;;;;;;33.37;28.20;;;;;;;8.40;100.00;100549.16;4845997;29;20065;-91
2022/12/22 12:12:38;;;;;;;33.10;27.53;;;;;;;8.45;100.00;100550.25;4842141;29;20058;-89
2022/12/22 12:15:20;;;;;;;32.33;28.03;;;;;;;8.36;100.00;100547.91;4822213;29;20073;-90
2022/12/22 12:18:07;;;;;;;32.20;27.27;;;;;;;8.37;100.00;100545.00;4824067;29;20061;-90
2022/12/22 12:20:48;;;;;;;28.30;22.67;;;;;;;8.39;100.00;100539.41;4840156;29;20029;-89
2022/12/22 12:23:41;;;;;;;27.60;22.27;;;;;;;8.62;100.00;100530.94;4837235;29;20623;-89
2022/12/22 12:26:18;;;;;;;28.17;21.73;;;;;;;8.59;100.00;100526.81;4840505;29;20380;-90
2022/12/22 12:29:00;;;;;;;25.40;21.13;;;;;;;8.57;100.00;100528.88;4822094;29;20033;-90
2022/12/22 12:31:33;;;;;;;27.60;22.03;;;;;;;8.59;100.00;100521.41;4837855;29;20382;-90
2022/12/22 12:34:01;;;;;;;27.33;21.87;;;;;;;8.75;100.00;100513.94;4837392;29;20060;-90
2022/12/22 12:36:47;;;;;;;29.43;23.10;;;;;;;8.80;100.00;100522.25;4841192;29;20044;-90
2022/12/22 12:39:16;;;;;;;26.97;21.57;;;;;;;8.74;100.00;100506.84;4822094;29;20592;-90
2022/12/22 12:41:48;;;;;;;27.90;21.63;;;;;;;8.70;100.00;100505.59;4822036;29;20048;-90
2022/12/22 12:44:16;;;;;;;26.83;20.97;;;;;;;8.75;100.00;100509.34;4839837;29;20030;-90
2022/12/22 12:46:43;;;;;;;27.30;21.70;;;;;;;8.99;100.00;100498.09;4842225;29;20073;-90
2022/12/22 12:49:34;;;;;;;26.47;20.50;;;;;;;9.02;100.00;100495.00;4843222;29;20088;-90
2022/12/22 12:52:06;;;;;;;21.70;17.37;;;;;;;8.85;100.00;100502.69;4825424;29;20033;-90
2022/12/22 12:54:31;;;;;;;24.43;18.37;;;;;;;8.73;100.00;100497.06;4847862;29;20092;-89
2022/12/22 12:57:44;;;;;;;23.57;17.43;;;;;;;8.76;100.00;100511.00;4830185;29;20495;-89
2022/12/22 13:00:32;;;;;;;22.47;17.77;;;;;;;8.62;100.00;100509.34;4813380;29;20550;-89
2022/12/22 13:03:03;;;;;;;24.73;20.30;;;;;;;8.40;100.00;100506.78;4828678;29;20129;-89
2022/12/22 13:05:35;;;;;;;25.40;18.73;;;;;;;8.44;100.00;100504.53;4827736;29;20044;-90
2022/12/22 13:08:14;;;;;;;25.47;19.07;;;;;;;8.40;100.00;100501.38;4842166;29;20033;-89
2022/12/22 13:10:44;;;;;;;24.87;18.70;;;;;;;8.40;100.00;100506.78;4827361;29;20041;-90
2022/12/22 13:13:32;;;;;;;23.83;19.23;;;;;;;8.42;100.00;100512.00;4843280;29;20141;-90
2022/12/22 13:16:00;;;;;;;25.00;19.43;;;;;;;8.39;100.00;100505.16;4833288;29;20254;-90
2022/12/22 13:18:28;;;;;;;24.23;18.97;;;;;;;8.42;100.00;100501.22;4845734;29;20029;-90
2022/12/22 13:20:58;;;;;;;26.93;20.13;;;;;;;8.45;100.00;100500.81;4845506;29;20052;-90
2022/12/22 13:23:28;;;;;;;24.40;19.70;;;;;;;8.42;100.00;100493.09;4846715;29;20072;-90
2022/12/22 13:26:01;;;;;;;25.30;19.97;;;;;;;8.43;100.00;100495.59;4845207;29;20117;-90
2022/12/22 13:28:28;;;;;;;22.67;18.10;;;;;;;8.45;100.00;100500.81;4845429;29;20049;-90
2022/12/22 13:31:05;;;;;;;24.23;19.93;;;;;;;8.44;100.00;100504.53;4842429;29;20041;-90
2022/12/22 13:33:37;;;;;;;26.07;20.23;;;;;;;8.40;100.00;100500.56;4828864;29;20099;-90
2022/12/22 13:36:07;;;;;;;25.07;19.80;;;;;;;8.37;100.00;100504.50;4826263;29;20132;-90
2022/12/22 13:38:36;;;;;;;26.77;20.03;;;;;;;8.37;100.00;100507.22;4845886;29;20522;-90
2022/12/22 13:41:11;;;;;;;26.63;20.30;;;;;;;8.31;100.00;100501.78;4825753;29;20098;-90
2022/12/22 13:43:37;;;;;;;25.03;19.90;;;;;;;8.35;100.00;100503.03;4828817;29;20047;-90
2022/12/22 13:46:04;;;;;;;26.10;19.63;;;;;;;8.35;100.00;100487.69;4824452;29;21962;-90
2022/12/22 13:48:51;;;;;;;25.03;19.87;;;;;;;8.39;100.00;100494.34;4845537;29;20098;-90
2022/12/22 13:51:23;;;;;;;24.00;19.30;;;;;;;8.38;100.00;100489.16;4844161;29;20036;-90
2022/12/22 13:53:59;;;;;;;27.70;20.23;;;;;;;8.37;100.00;100479.41;4841368;29;20029;-90
2022/12/22 13:56:33;;;;;;;25.77;20.83;;;;;;;8.39;100.00;100480.84;4822866;29;20045;-90
2022/12/22 13:59:00;;;;;;;24.35;19.73;;;;;;;8.47;100.00;100482.53;4827930;29;20482;-90
2022/12/22 14:01:27;;;;;;;21.90;18.03;;;;;;;8.32;100.00;100487.28;4831965;29;20030;-89
2022/12/22 14:04:02;;;;;;;22.53;16.67;;;;;;;8.39;100.00;100483.56;4843046;29;20586;-89
2022/12/22 14:06:30;;;;;;;20.83;16.30;;;;;;;8.41;100.00;100475.25;4814187;29;20041;-89
2022/12/22 14:09:10;;;;;;;19.50;14.70;;;;;;;8.40;100.00;100470.88;4829779;29;20363;-85
2022/12/22 14:11:36;;;;;;;18.27;13.93;;;;;;;8.39;100.00;100464.66;4824027;29;20428;-86
2022/12/22 14:14:09;;;;;;;18.43;13.67;;;;;;;8.35;100.00;100465.25;4821650;29;20072;-85
2022/12/22 14:16:42;;;;;;;20.33;13.97;;;;;;;8.35;100.00;100470.66;4824158;29;20026;-85
2022/12/22 14:19:13;;;;;;;19.27;13.63;;;;;;;8.29;100.00;100472.31;4822603;29;21623;-86
2022/12/22 14:21:39;;;;;;;18.50;14.00;;;;;;;8.28;100.00;100460.69;4825373;29;20085;-90
2022/12/22 14:24:09;;;;;;;19.50;14.13;;;;;;;8.22;100.00;100468.78;4825618;29;20048;-86
2022/12/22 14:26:34;;;;;;;17.97;13.97;;;;;;;8.18;100.00;100443.25;4839091;29;20065;-85
2022/12/22 14:29:00;;;;;;;18.43;14.10;;;;;;;8.16;100.00;100456.09;4823801;29;20038;-85
2022/12/22 14:31:26;;;;;;;20.10;14.33;;;;;;;8.10;100.00;100447.81;4839502;29;21041;-85
2022/12/22 14:34:04;;;;;;;20.40;15.10;;;;;;;8.16;100.00;100442.59;4842373;29;20056;-85
2022/12/22 14:36:35;;;;;;;18.33;13.40;;;;;;;8.14;100.00;100439.28;4840040;29;20108;-85
2022/12/22 14:39:08;;;;;;;18.83;15.10;;;;;;;8.09;100.00;100429.09;4805900;29;20490;-89
2022/12/22 14:41:56;;;;;;;20.00;15.43;;;;;;;8.09;100.00;100431.81;4842523;29;20124;-89
2022/12/22 14:44:21;;;;;;;21.40;15.97;;;;;;;8.07;100.00;100425.78;4822372;29;20194;-85
2022/12/22 14:47:11;;;;;;;21.80;16.43;;;;;;;8.04;100.00;100421.63;4838968;29;20033;-85
2022/12/22 14:49:56;;;;;;;19.83;16.23;;;;;;;8.04;100.00;100420.81;4842717;29;20089;-85
2022/12/22 14:52:27;;;;;;;21.77;15.90;;;;;;;8.02;100.00;100414.78;4839742;29;20034;-85
2022/12/22 14:54:54;;;;;;;20.70;16.17;;;;;;;8.01;100.00;100410.41;4823025;29;20029;-85
2022/12/22 14:57:41;;;;;;;21.57;15.50;;;;;;;8.00;100.00;100409.59;4826469;29;20099;-85
2022/12/22 15:00:22;;;;;;;19.50;15.27;;;;;;;7.98;100.00;100411.66;4839986;29;20034;-85
2022/12/22 15:02:56;;;;;;;22.20;15.70;;;;;;;7.98;100.00;100405.44;4839195;29;20494;-85
2022/12/22 15:05:28;;;;;;;20.83;16.70;;;;;;;7.96;100.00;100410.22;4840416;29;20485;-85